sensor_id;sensor_type;location;lat;lon;timestamp;pressure;altitude;pressure_sealevel;temperature;humidity
71145;BME280;58812;47.698;17.726;2023-03-31T00:01:30;99926.19;;;9.89;100.00
71145;BME280;58812;47.698;17.726;2023-03-31T00:03:58;99916.66;;;9.86;100.00
71145;BME280;58812;47.698;17.726;2023-03-31T00:06:32;99923.81;;;9.86;100.00
71145;BME280;58812;47.698;17.726;2023-03-31T00:09:03;99933.06;;;9.92;100.00
71145;BME280;58812;47.698;17.726;2023-03-31T00:11:29;99930.69;;;9.88;100.00
71145;BME280;58812;47.698;17.726;2023-03-31T00:13:54;99925.25;;;9.80;100.00
71145;BME280;58812;47.698;17.726;2023-03-31T00:16:20;99925.94;;;9.82;100.00
71145;BME280;58812;47.698;17.726;2023-03-31T00:18:45;99923.72;;;9.78;100.00
71145;BME280;58812;47.698;17.726;2023-03-31T00:21:17;99929.66;;;9.72;100.00
71145;BME280;58812;47.698;17.726;2023-03-31T00:23:57;99930.13;;;9.67;100.00
71145;BME280;58812;47.698;17.726;2023-03-31T00:26:24;99929.41;;;9.65;100.00
71145;BME280;58812;47.698;17.726;2023-03-31T00:28:50;99919.03;;;9.62;100.00
71145;BME280;58812;47.698;17.726;2023-03-31T00:31:17;99920.72;;;9.63;100.00
71145;BME280;58812;47.698;17.726;2023-03-31T00:33:43;99915.53;;;9.61;100.00
71145;BME280;58812;47.698;17.726;2023-03-31T00:36:08;99910.19;;;9.61;100.00
71145;BME280;58812;47.698;17.726;2023-03-31T00:38:34;99909.47;;;9.59;100.00
71145;BME280;58812;47.698;17.726;2023-03-31T00:41:00;99903.22;;;9.51;100.00
71145;BME280;58812;47.698;17.726;2023-03-31T00:43:33;99906.72;;;9.51;100.00
71145;BME280;58812;47.698;17.726;2023-03-31T00:46:04;99905.56;;;9.54;100.00
71145;BME280;58812;47.698;17.726;2023-03-31T00:48:32;99911.22;;;9.51;100.00
71145;BME280;58812;47.698;17.726;2023-03-31T00:51:03;99895.44;;;9.57;100.00
71145;BME280;58812;47.698;17.726;2023-03-31T00:53:31;99903.88;;;9.53;100.00
71145;BME280;58812;47.698;17.726;2023-03-31T00:56:05;99906.88;;;9.50;100.00
71145;BME280;58812;47.698;17.726;2023-03-31T00:58:31;99902.81;;;9.46;100.00
71145;BME280;58812;47.698;17.726;2023-03-31T01:00:59;99900.81;;;9.48;100.00
71145;BME280;58812;47.698;17.726;2023-03-31T01:03:27;99894.47;;;9.21;100.00
71145;BME280;58812;47.698;17.726;2023-03-31T01:05:56;99888.38;;;9.01;100.00
71145;BME280;58812;47.698;17.726;2023-03-31T01:08:26;99890.38;;;8.90;100.00
71145;BME280;58812;47.698;17.726;2023-03-31T01:10:55;99885.91;;;8.80;100.00
71145;BME280;58812;47.698;17.726;2023-03-31T01:13:22;99882.81;;;8.75;100.00
71145;BME280;58812;47.698;17.726;2023-03-31T01:15:49;99881.41;;;8.71;100.00
71145;BME280;58812;47.698;17.726;2023-03-31T01:18:15;99885.38;;;8.67;100.00
71145;BME280;58812;47.698;17.726;2023-03-31T01:29:58;99876.84;;;8.54;100.00
71145;BME280;58812;47.698;17.726;2023-03-31T01:46:26;99864.63;;;8.22;100.00
71145;BME280;58812;47.698;17.726;2023-03-31T01:51:32;99871.34;;;8.26;100.00
71145;BME280;58812;47.698;17.726;2023-03-31T01:56:34;99868.28;;;8.31;100.00
71145;BME280;58812;47.698;17.726;2023-03-31T01:59:22;99870.78;;;8.23;100.00
71145;BME280;58812;47.698;17.726;2023-03-31T02:02:06;99868.28;;;8.21;100.00
71145;BME280;58812;47.698;17.726;2023-03-31T02:04:39;99868.41;;;8.20;100.00
71145;BME280;58812;47.698;17.726;2023-03-31T02:07:15;99870.50;;;8.16;100.00
71145;BME280;58812;47.698;17.726;2023-03-31T02:09:47;99864.22;;;8.08;100.00
71145;BME280;58812;47.698;17.726;2023-03-31T02:12:15;99865.63;;;8.02;100.00
71145;BME280;58812;47.698;17.726;2023-03-31T02:14:44;99872.78;;;8.01;100.00
71145;BME280;58812;47.698;17.726;2023-03-31T02:17:15;99862.53;;;7.97;100.00
71145;BME280;58812;47.698;17.726;2023-03-31T02:19:44;99866.00;;;7.88;100.00
71145;BME280;58812;47.698;17.726;2023-03-31T02:22:12;99864.06;;;7.90;100.00
71145;BME280;58812;47.698;17.726;2023-03-31T02:24:39;99865.75;;;7.91;100.00
71145;BME280;58812;47.698;17.726;2023-03-31T02:27:16;99859.00;;;7.87;100.00
71145;BME280;58812;47.698;17.726;2023-03-31T02:29:43;99850.47;;;7.83;100.00
71145;BME280;58812;47.698;17.726;2023-03-31T02:32:20;99848.91;;;7.81;100.00
71145;BME280;58812;47.698;17.726;2023-03-31T02:34:47;99845.25;;;7.82;100.00
71145;BME280;58812;47.698;17.726;2023-03-31T02:37:13;99845.97;;;7.84;100.00
71145;BME280;58812;47.698;17.726;2023-03-31T02:39:41;99842.16;;;7.86;100.00
71145;BME280;58812;47.698;17.726;2023-03-31T02:42:08;99847.22;;;7.89;100.00
71145;BME280;58812;47.698;17.726;2023-03-31T02:44:35;99848.50;;;7.95;100.00
71145;BME280;58812;47.698;17.726;2023-03-31T02:47:02;99844.12;;;7.94;100.00
71145;BME280;58812;47.698;17.726;2023-03-31T02:49:30;99842.75;;;7.90;100.00
71145;BME280;58812;47.698;17.726;2023-03-31T03:02:55;99837.12;;;7.93;100.00
71145;BME280;58812;47.698;17.726;2023-03-31T03:05:27;99832.91;;;7.90;100.00
71145;BME280;58812;47.698;17.726;2023-03-31T03:10:27;99829.28;;;7.91;100.00
71145;BME280;58812;47.698;17.726;2023-03-31T03:13:27;99826.19;;;7.96;100.00
71145;BME280;58812;47.698;17.726;2023-03-31T03:18:29;99816.34;;;8.06;100.00
71145;BME280;58812;47.698;17.726;2023-03-31T03:20:55;99824.06;;;8.19;100.00
71145;BME280;58812;47.698;17.726;2023-03-31T03:23:21;99813.41;;;8.19;100.00
71145;BME280;58812;47.698;17.726;2023-03-31T03:25:46;99812.16;;;8.13;100.00
71145;BME280;58812;47.698;17.726;2023-03-31T03:28:12;99814.94;;;8.21;100.00
71145;BME280;58812;47.698;17.726;2023-03-31T03:30:37;99814.34;;;8.47;100.00
71145;BME280;58812;47.698;17.726;2023-03-31T03:33:03;99804.25;;;8.31;100.00
71145;BME280;58812;47.698;17.726;2023-03-31T03:35:31;99807.06;;;8.49;100.00
71145;BME280;58812;47.698;17.726;2023-03-31T03:37:56;99812.41;;;8.39;100.00
71145;BME280;58812;47.698;17.726;2023-03-31T03:40:22;99805.50;;;8.46;100.00
71145;BME280;58812;47.698;17.726;2023-03-31T03:42:47;99807.34;;;8.46;100.00
71145;BME280;58812;47.698;17.726;2023-03-31T03:45:13;99803.13;;;8.34;100.00
71145;BME280;58812;47.698;17.726;2023-03-31T03:47:38;99810.72;;;8.28;100.00
71145;BME280;58812;47.698;17.726;2023-03-31T03:50:04;99802.28;;;8.23;100.00
71145;BME280;58812;47.698;17.726;2023-03-31T03:52:29;99795.16;;;8.14;100.00
71145;BME280;58812;47.698;17.726;2023-03-31T03:54:55;99801.19;;;8.26;100.00
71145;BME280;58812;47.698;17.726;2023-03-31T03:57:20;99795.00;;;8.25;100.00
71145;BME280;58812;47.698;17.726;2023-03-31T03:59:46;99790.25;;;8.19;100.00
71145;BME280;58812;47.698;17.726;2023-03-31T04:02:12;99789.38;;;8.28;100.00
71145;BME280;58812;47.698;17.726;2023-03-31T04:04:37;99794.97;;;8.35;100.00
71145;BME280;58812;47.698;17.726;2023-03-31T04:07:03;99800.34;;;8.06;100.00
71145;BME280;58812;47.698;17.726;2023-03-31T04:09:28;99791.09;;;8.10;100.00
71145;BME280;58812;47.698;17.726;2023-03-31T04:11:54;99784.34;;;8.06;100.00
71145;BME280;58812;47.698;17.726;2023-03-31T04:14:19;99774.00;;;7.84;100.00
71145;BME280;58812;47.698;17.726;2023-03-31T04:16:45;99780.16;;;7.94;100.00
71145;BME280;58812;47.698;17.726;2023-03-31T04:19:12;99772.47;;;7.71;100.00
71145;BME280;58812;47.698;17.726;2023-03-31T04:21:39;99774.00;;;7.93;100.00
71145;BME280;58812;47.698;17.726;2023-03-31T04:24:10;99767.00;;;7.83;100.00
71145;BME280;58812;47.698;17.726;2023-03-31T04:26:40;99774.28;;;7.81;100.00
71145;BME280;58812;47.698;17.726;2023-03-31T04:29:13;99764.19;;;7.74;100.00
71145;BME280;58812;47.698;17.726;2023-03-31T04:31:41;99764.19;;;7.74;100.00
71145;BME280;58812;47.698;17.726;2023-03-31T04:34:10;99758.31;;;7.71;100.00
71145;BME280;58812;47.698;17.726;2023-03-31T04:36:44;99758.59;;;7.78;100.00
71145;BME280;58812;47.698;17.726;2023-03-31T04:39:17;99755.63;;;7.90;100.00
71145;BME280;58812;47.698;17.726;2023-03-31T04:41:48;99745.34;;;8.15;100.00
71145;BME280;58812;47.698;17.726;2023-03-31T04:44:13;99737.50;;;8.03;100.00
71145;BME280;58812;47.698;17.726;2023-03-31T04:46:39;99740.03;;;8.05;100.00
71145;BME280;58812;47.698;17.726;2023-03-31T04:49:05;99735.69;;;8.04;100.00
71145;BME280;58812;47.698;17.726;2023-03-31T04:51:30;99748.00;;;8.24;100.00
71145;BME280;58812;47.698;17.726;2023-03-31T04:53:55;99744.72;;;8.50;100.00
71145;BME280;58812;47.698;17.726;2023-03-31T04:56:21;99739.59;;;8.66;100.00
71145;BME280;58812;47.698;17.726;2023-03-31T04:58:47;99744.16;;;8.83;100.00
71145;BME280;58812;47.698;17.726;2023-03-31T05:01:12;99740.00;;;8.99;100.00
71145;BME280;58812;47.698;17.726;2023-03-31T05:03:42;99752.62;;;8.69;100.00
71145;BME280;58812;47.698;17.726;2023-03-31T05:06:08;99744.13;;;8.56;100.00
71145;BME280;58812;47.698;17.726;2023-03-31T05:08:34;99752.47;;;9.08;100.00
71145;BME280;58812;47.698;17.726;2023-03-31T05:11:01;99752.78;;;9.23;100.00
71145;BME280;58812;47.698;17.726;2023-03-31T05:13:27;99754.97;;;8.45;100.00
71145;BME280;58812;47.698;17.726;2023-03-31T05:15:52;99754.72;;;8.48;100.00
71145;BME280;58812;47.698;17.726;2023-03-31T05:18:17;99751.63;;;8.33;100.00
71145;BME280;58812;47.698;17.726;2023-03-31T05:20:43;99749.00;;;8.14;100.00
71145;BME280;58812;47.698;17.726;2023-03-31T05:23:08;99750.94;;;8.21;100.00
71145;BME280;58812;47.698;17.726;2023-03-31T05:25:34;99747.28;;;8.22;100.00
71145;BME280;58812;47.698;17.726;2023-03-31T05:28:00;99741.28;;;8.11;100.00
71145;BME280;58812;47.698;17.726;2023-03-31T05:30:26;99739.69;;;8.27;100.00
71145;BME280;58812;47.698;17.726;2023-03-31T05:32:52;99735.94;;;8.20;100.00
71145;BME280;58812;47.698;17.726;2023-03-31T05:35:18;99730.72;;;8.38;100.00
71145;BME280;58812;47.698;17.726;2023-03-31T05:37:43;99727.19;;;8.75;100.00
71145;BME280;58812;47.698;17.726;2023-03-31T05:40:09;99725.75;;;8.80;100.00
71145;BME280;58812;47.698;17.726;2023-03-31T05:42:35;99726.69;;;8.62;100.00
71145;BME280;58812;47.698;17.726;2023-03-31T05:45:01;99721.84;;;8.75;100.00
71145;BME280;58812;47.698;17.726;2023-03-31T05:47:26;99718.56;;;8.91;100.00
71145;BME280;58812;47.698;17.726;2023-03-31T05:49:52;99712.84;;;9.03;100.00
71145;BME280;58812;47.698;17.726;2023-03-31T05:52:17;99710.97;;;9.14;100.00
71145;BME280;58812;47.698;17.726;2023-03-31T05:54:43;99705.34;;;9.07;100.00
71145;BME280;58812;47.698;17.726;2023-03-31T05:57:09;99704.69;;;9.23;100.00
71145;BME280;58812;47.698;17.726;2023-03-31T05:59:35;99690.13;;;9.35;100.00
71145;BME280;58812;47.698;17.726;2023-03-31T06:02:01;99697.22;;;9.62;100.00
71145;BME280;58812;47.698;17.726;2023-03-31T06:04:27;99693.59;;;9.71;100.00
71145;BME280;58812;47.698;17.726;2023-03-31T06:06:53;99691.56;;;10.09;100.00
71145;BME280;58812;47.698;17.726;2023-03-31T06:09:20;99693.22;;;9.66;100.00
71145;BME280;58812;47.698;17.726;2023-03-31T06:11:45;99691.28;;;9.50;100.00
71145;BME280;58812;47.698;17.726;2023-03-31T06:14:11;99688.63;;;9.32;100.00
71145;BME280;58812;47.698;17.726;2023-03-31T06:16:37;99682.22;;;9.25;100.00
71145;BME280;58812;47.698;17.726;2023-03-31T06:19:03;99691.19;;;9.24;100.00
71145;BME280;58812;47.698;17.726;2023-03-31T06:21:28;99685.09;;;9.14;100.00
71145;BME280;58812;47.698;17.726;2023-03-31T06:23:54;99684.00;;;9.25;100.00
71145;BME280;58812;47.698;17.726;2023-03-31T06:26:22;99676.59;;;9.36;100.00
71145;BME280;58812;47.698;17.726;2023-03-31T06:28:48;99674.53;;;9.30;100.00
71145;BME280;58812;47.698;17.726;2023-03-31T06:31:20;99681.28;;;9.34;100.00
71145;BME280;58812;47.698;17.726;2023-03-31T06:33:46;99692.62;;;9.36;100.00
71145;BME280;58812;47.698;17.726;2023-03-31T06:36:13;99691.25;;;9.68;100.00
71145;BME280;58812;47.698;17.726;2023-03-31T06:38:39;99683.75;;;9.72;100.00
71145;BME280;58812;47.698;17.726;2023-03-31T06:41:06;99689.09;;;10.41;100.00
71145;BME280;58812;47.698;17.726;2023-03-31T06:43:33;99698.22;;;10.57;100.00
71145;BME280;58812;47.698;17.726;2023-03-31T06:45:58;99687.22;;;10.68;100.00
71145;BME280;58812;47.698;17.726;2023-03-31T06:48:24;99681.34;;;11.39;99.47
71145;BME280;58812;47.698;17.726;2023-03-31T06:50:52;99676.00;;;12.05;99.45
71145;BME280;58812;47.698;17.726;2023-03-31T06:53:18;99673.78;;;12.72;94.63
71145;BME280;58812;47.698;17.726;2023-03-31T06:55:43;99682.56;;;12.57;95.00
71145;BME280;58812;47.698;17.726;2023-03-31T06:58:09;99683.25;;;12.51;90.44
71145;BME280;58812;47.698;17.726;2023-03-31T07:00:35;99670.75;;;13.06;88.25
71145;BME280;58812;47.698;17.726;2023-03-31T07:03:03;99674.75;;;12.79;87.52
71145;BME280;58812;47.698;17.726;2023-03-31T07:05:29;99675.53;;;12.48;87.41
71145;BME280;58812;47.698;17.726;2023-03-31T07:07:56;99677.81;;;12.68;88.26
71145;BME280;58812;47.698;17.726;2023-03-31T07:10:23;99670.12;;;12.56;90.71
71145;BME280;58812;47.698;17.726;2023-03-31T07:12:49;99668.19;;;12.42;90.61
71145;BME280;58812;47.698;17.726;2023-03-31T07:15:15;99666.09;;;12.61;89.57
71145;BME280;58812;47.698;17.726;2023-03-31T07:17:40;99673.13;;;12.62;85.64
71145;BME280;58812;47.698;17.726;2023-03-31T07:20:10;99665.44;;;12.59;87.89
71145;BME280;58812;47.698;17.726;2023-03-31T07:22:40;99654.78;;;12.73;88.40
71145;BME280;58812;47.698;17.726;2023-03-31T07:25:10;99653.38;;;12.86;86.31
71145;BME280;58812;47.698;17.726;2023-03-31T07:27:36;99665.47;;;12.50;86.62
71145;BME280;58812;47.698;17.726;2023-03-31T07:30:13;99649.78;;;12.70;86.05
71145;BME280;58812;47.698;17.726;2023-03-31T07:32:39;99652.22;;;12.88;85.91
71145;BME280;58812;47.698;17.726;2023-03-31T07:35:10;99650.09;;;13.06;82.80
71145;BME280;58812;47.698;17.726;2023-03-31T07:37:36;99646.75;;;13.04;84.51
71145;BME280;58812;47.698;17.726;2023-03-31T07:40:03;99644.09;;;13.88;82.57
71145;BME280;58812;47.698;17.726;2023-03-31T07:42:30;99628.78;;;13.88;81.03
71145;BME280;58812;47.698;17.726;2023-03-31T07:44:56;99621.53;;;13.51;81.38
71145;BME280;58812;47.698;17.726;2023-03-31T07:47:22;99625.16;;;13.21;83.55
71145;BME280;58812;47.698;17.726;2023-03-31T07:49:48;99621.59;;;13.81;81.64
71145;BME280;58812;47.698;17.726;2023-03-31T07:52:14;99617.94;;;13.13;83.63
71145;BME280;58812;47.698;17.726;2023-03-31T07:54:40;99616.28;;;12.89;85.49
71145;BME280;58812;47.698;17.726;2023-03-31T07:57:05;99620.97;;;13.41;85.02
71145;BME280;58812;47.698;17.726;2023-03-31T07:59:32;99619.03;;;13.87;80.80
71145;BME280;58812;47.698;17.726;2023-03-31T08:01:58;99612.47;;;14.20;79.82
71145;BME280;58812;47.698;17.726;2023-03-31T08:04:23;99608.75;;;14.35;79.85
71145;BME280;58812;47.698;17.726;2023-03-31T08:06:48;99614.28;;;14.63;76.39
71145;BME280;58812;47.698;17.726;2023-03-31T08:09:16;99618.28;;;14.67;76.46
71145;BME280;58812;47.698;17.726;2023-03-31T08:11:41;99611.13;;;14.75;78.40
71145;BME280;58812;47.698;17.726;2023-03-31T08:14:07;99611.59;;;14.78;77.22
71145;BME280;58812;47.698;17.726;2023-03-31T08:16:32;99612.66;;;15.63;75.56
71145;BME280;58812;47.698;17.726;2023-03-31T08:18:58;99607.81;;;15.58;73.83
71145;BME280;58812;47.698;17.726;2023-03-31T08:21:23;99601.91;;;15.69;74.04
71145;BME280;58812;47.698;17.726;2023-03-31T08:23:51;99589.22;;;15.42;71.54
71145;BME280;58812;47.698;17.726;2023-03-31T08:26:17;99594.69;;;15.76;72.96
71145;BME280;58812;47.698;17.726;2023-03-31T08:28:43;99586.38;;;15.71;72.94
71145;BME280;58812;47.698;17.726;2023-03-31T08:31:09;99587.81;;;16.02;71.77
71145;BME280;58812;47.698;17.726;2023-03-31T08:33:35;99580.81;;;15.80;73.29
71145;BME280;58812;47.698;17.726;2023-03-31T08:36:05;99587.47;;;16.18;73.14
71145;BME280;58812;47.698;17.726;2023-03-31T08:38:33;99568.91;;;16.98;69.87
71145;BME280;58812;47.698;17.726;2023-03-31T08:41:02;99568.44;;;16.81;69.50
71145;BME280;58812;47.698;17.726;2023-03-31T08:43:33;99570.41;;;16.59;67.40
71145;BME280;58812;47.698;17.726;2023-03-31T08:46:02;99561.50;;;15.55;71.84
71145;BME280;58812;47.698;17.726;2023-03-31T08:48:56;99564.06;;;16.25;71.66
71145;BME280;58812;47.698;17.726;2023-03-31T08:54:02;99548.47;;;16.27;69.69
71145;BME280;58812;47.698;17.726;2023-03-31T08:56:33;99552.88;;;16.35;68.86
71145;BME280;58812;47.698;17.726;2023-03-31T08:59:02;99545.03;;;16.53;69.80
71145;BME280;58812;47.698;17.726;2023-03-31T09:01:46;99537.28;;;16.78;68.35
71145;BME280;58812;47.698;17.726;2023-03-31T09:07:17;99525.12;;;16.61;68.22
71145;BME280;58812;47.698;17.726;2023-03-31T09:15:21;99515.66;;;16.92;67.45
71145;BME280;58812;47.698;17.726;2023-03-31T09:17:50;99518.47;;;16.57;66.55
71145;BME280;58812;47.698;17.726;2023-03-31T09:20:22;99511.47;;;16.89;67.53
71145;BME280;58812;47.698;17.726;2023-03-31T09:22:55;99505.44;;;17.53;65.34
71145;BME280;58812;47.698;17.726;2023-03-31T09:25:33;99509.00;;;16.88;65.18
71145;BME280;58812;47.698;17.726;2023-03-31T09:28:02;99503.91;;;16.65;68.58
71145;BME280;58812;47.698;17.726;2023-03-31T09:30:30;99503.88;;;16.45;69.40
71145;BME280;58812;47.698;17.726;2023-03-31T09:33:15;99501.44;;;16.70;69.94
71145;BME280;58812;47.698;17.726;2023-03-31T09:35:41;99503.75;;;16.18;70.43
71145;BME280;58812;47.698;17.726;2023-03-31T09:38:10;99490.63;;;16.02;69.56
71145;BME280;58812;47.698;17.726;2023-03-31T09:40:36;99494.91;;;15.55;70.07
71145;BME280;58812;47.698;17.726;2023-03-31T09:43:07;99486.34;;;15.80;71.23
71145;BME280;58812;47.698;17.726;2023-03-31T09:45:33;99483.91;;;15.57;71.78
71145;BME280;58812;47.698;17.726;2023-03-31T09:48:06;99475.19;;;15.55;70.77
71145;BME280;58812;47.698;17.726;2023-03-31T09:50:51;99465.44;;;15.95;72.28
71145;BME280;58812;47.698;17.726;2023-03-31T09:53:36;99465.13;;;16.18;71.51
71145;BME280;58812;47.698;17.726;2023-03-31T09:56:04;99466.31;;;16.02;69.49
71145;BME280;58812;47.698;17.726;2023-03-31T09:58:47;99461.16;;;16.07;71.44
71145;BME280;58812;47.698;17.726;2023-03-31T10:01:14;99462.81;;;16.08;70.99
71145;BME280;58812;47.698;17.726;2023-03-31T10:03:48;99450.06;;;15.89;69.44
71145;BME280;58812;47.698;17.726;2023-03-31T10:06:15;99433.66;;;15.84;67.56
71145;BME280;58812;47.698;17.726;2023-03-31T10:08:46;99427.81;;;15.80;68.67
71145;BME280;58812;47.698;17.726;2023-03-31T10:11:12;99428.53;;;16.02;68.49
71145;BME280;58812;47.698;17.726;2023-03-31T10:21:37;99422.37;;;16.35;66.79
71145;BME280;58812;47.698;17.726;2023-03-31T10:24:08;99416.50;;;16.11;66.57
71145;BME280;58812;47.698;17.726;2023-03-31T10:26:35;99416.09;;;16.08;67.91
71145;BME280;58812;47.698;17.726;2023-03-31T10:29:00;99413.19;;;16.16;67.32
71145;BME280;58812;47.698;17.726;2023-03-31T10:31:34;99412.38;;;16.15;67.49
71145;BME280;58812;47.698;17.726;2023-03-31T10:34:05;99404.09;;;16.30;67.28
71145;BME280;58812;47.698;17.726;2023-03-31T10:36:32;99406.13;;;16.08;67.21
71145;BME280;58812;47.698;17.726;2023-03-31T10:39:04;99404.03;;;16.10;68.92
71145;BME280;58812;47.698;17.726;2023-03-31T10:41:30;99387.62;;;16.05;68.99
71145;BME280;58812;47.698;17.726;2023-03-31T10:43:57;99389.53;;;16.24;68.98
71145;BME280;58812;47.698;17.726;2023-03-31T10:46:49;99383.50;;;16.16;69.00
71145;BME280;58812;47.698;17.726;2023-03-31T10:51:52;99368.41;;;16.54;69.14
71145;BME280;58812;47.698;17.726;2023-03-31T10:54:18;99364.47;;;16.70;67.66
71145;BME280;58812;47.698;17.726;2023-03-31T10:57:04;99353.87;;;16.75;67.87
71145;BME280;58812;47.698;17.726;2023-03-31T10:59:43;99356.78;;;17.65;65.40
71145;BME280;58812;47.698;17.726;2023-03-31T11:02:29;99348.56;;;17.33;66.40
71145;BME280;58812;47.698;17.726;2023-03-31T11:05:13;99340.09;;;17.10;65.67
71145;BME280;58812;47.698;17.726;2023-03-31T11:30:25;99299.47;;;17.81;59.97
71145;BME280;58812;47.698;17.726;2023-03-31T11:36:06;99278.97;;;18.49;58.61
71145;BME280;58812;47.698;17.726;2023-03-31T11:41:51;99268.38;;;19.09;56.36
71145;BME280;58812;47.698;17.726;2023-03-31T11:44:18;99275.59;;;18.28;57.66
71145;BME280;58812;47.698;17.726;2023-03-31T11:46:54;99272.72;;;18.48;57.19
71145;BME280;58812;47.698;17.726;2023-03-31T11:49:27;99268.81;;;19.61;53.48
71145;BME280;58812;47.698;17.726;2023-03-31T11:51:56;99266.22;;;19.17;54.74
71145;BME280;58812;47.698;17.726;2023-03-31T11:54:45;99275.16;;;19.00;54.14
71145;BME280;58812;47.698;17.726;2023-03-31T11:57:19;99274.44;;;18.42;54.61
71145;BME280;58812;47.698;17.726;2023-03-31T11:59:52;99275.09;;;18.13;57.30
71145;BME280;58812;47.698;17.726;2023-03-31T12:02:25;99275.53;;;18.10;58.54
71145;BME280;58812;47.698;17.726;2023-03-31T12:04:56;99273.59;;;18.17;58.70
71145;BME280;58812;47.698;17.726;2023-03-31T12:07:40;99280.59;;;18.00;61.05
71145;BME280;58812;47.698;17.726;2023-03-31T12:12:42;99286.16;;;17.67;62.77
71145;BME280;58812;47.698;17.726;2023-03-31T12:17:38;99275.91;;;17.44;63.73
71145;BME280;58812;47.698;17.726;2023-03-31T12:20:16;99280.09;;;17.78;62.87
71145;BME280;58812;47.698;17.726;2023-03-31T12:22:47;99260.81;;;17.99;59.91
71145;BME280;58812;47.698;17.726;2023-03-31T12:25:14;99260.97;;;18.79;58.58
71145;BME280;58812;47.698;17.726;2023-03-31T12:27:44;99256.78;;;19.20;56.85
71145;BME280;58812;47.698;17.726;2023-03-31T12:30:36;99253.06;;;18.78;56.20
71145;BME280;58812;47.698;17.726;2023-03-31T12:46:36;99197.19;;;18.08;58.23
71145;BME280;58812;47.698;17.726;2023-03-31T12:57:24;99151.16;;;18.52;55.39
71145;BME280;58812;47.698;17.726;2023-03-31T13:00:22;99126.19;;;18.68;56.21
71145;BME280;58812;47.698;17.726;2023-03-31T13:02:48;99123.59;;;18.73;54.49
71145;BME280;58812;47.698;17.726;2023-03-31T13:08:06;99116.81;;;18.27;55.18
71145;BME280;58812;47.698;17.726;2023-03-31T13:10:33;99102.81;;;17.87;56.33
71145;BME280;58812;47.698;17.726;2023-03-31T13:13:16;99103.09;;;18.04;56.28
71145;BME280;58812;47.698;17.726;2023-03-31T13:15:54;99091.53;;;17.90;57.55
71145;BME280;58812;47.698;17.726;2023-03-31T13:18:20;99084.03;;;17.67;57.55
71145;BME280;58812;47.698;17.726;2023-03-31T13:20:57;99082.75;;;17.45;57.68
71145;BME280;58812;47.698;17.726;2023-03-31T13:23:24;99070.47;;;17.42;58.90
71145;BME280;58812;47.698;17.726;2023-03-31T13:25:57;99069.81;;;17.47;58.61
71145;BME280;58812;47.698;17.726;2023-03-31T13:28:28;99062.59;;;17.41;58.50
71145;BME280;58812;47.698;17.726;2023-03-31T13:31:02;99059.00;;;17.47;58.30
71145;BME280;58812;47.698;17.726;2023-03-31T13:33:52;99049.44;;;17.69;58.42
71145;BME280;58812;47.698;17.726;2023-03-31T13:53:27;99022.25;;;17.82;54.52
71145;BME280;58812;47.698;17.726;2023-03-31T14:02:30;99020.19;;;17.34;56.07
71145;BME280;58812;47.698;17.726;2023-03-31T14:07:46;99033.25;;;17.13;56.79
71145;BME280;58812;47.698;17.726;2023-03-31T14:10:28;99035.56;;;17.09;57.12
71145;BME280;58812;47.698;17.726;2023-03-31T14:13:04;99023.94;;;17.08;57.67
71145;BME280;58812;47.698;17.726;2023-03-31T14:15:30;99022.28;;;17.01;56.25
71145;BME280;58812;47.698;17.726;2023-03-31T14:17:57;99022.28;;;17.01;58.42
71145;BME280;58812;47.698;17.726;2023-03-31T14:26:06;98965.19;;;16.91;55.61
71145;BME280;58812;47.698;17.726;2023-03-31T14:28:52;98957.47;;;16.94;56.31
71145;BME280;58812;47.698;17.726;2023-03-31T14:36:40;98940.16;;;17.02;57.40
71145;BME280;58812;47.698;17.726;2023-03-31T14:39:11;98929.00;;;16.92;55.75
71145;BME280;58812;47.698;17.726;2023-03-31T14:41:38;98935.53;;;16.84;56.47
71145;BME280;58812;47.698;17.726;2023-03-31T14:44:13;98922.59;;;16.86;57.53
71145;BME280;58812;47.698;17.726;2023-03-31T14:46:40;98911.56;;;16.88;58.18
71145;BME280;58812;47.698;17.726;2023-03-31T14:49:26;98916.78;;;16.82;57.81
71145;BME280;58812;47.698;17.726;2023-03-31T14:51:57;98916.59;;;16.84;57.31
71145;BME280;58812;47.698;17.726;2023-03-31T14:54:23;98899.81;;;16.75;58.45
71145;BME280;58812;47.698;17.726;2023-03-31T14:56:54;98905.97;;;16.82;58.74
71145;BME280;58812;47.698;17.726;2023-03-31T14:59:25;98903.91;;;16.85;58.53
71145;BME280;58812;47.698;17.726;2023-03-31T15:01:52;98900.56;;;16.82;58.38
71145;BME280;58812;47.698;17.726;2023-03-31T15:04:20;98889.69;;;16.64;58.12
71145;BME280;58812;47.698;17.726;2023-03-31T15:06:47;98898.59;;;16.65;59.06
71145;BME280;58812;47.698;17.726;2023-03-31T15:09:28;98897.88;;;16.51;58.80
71145;BME280;58812;47.698;17.726;2023-03-31T15:12:07;98897.09;;;16.44;59.24
71145;BME280;58812;47.698;17.726;2023-03-31T15:14:44;98899.56;;;16.45;60.11
71145;BME280;58812;47.698;17.726;2023-03-31T15:17:25;98915.84;;;16.39;59.58
71145;BME280;58812;47.698;17.726;2023-03-31T15:19:59;98915.25;;;16.30;60.36
71145;BME280;58812;47.698;17.726;2023-03-31T15:22:27;98913.81;;;16.27;61.62
71145;BME280;58812;47.698;17.726;2023-03-31T15:24:53;98916.50;;;16.27;61.56
71145;BME280;58812;47.698;17.726;2023-03-31T15:27:33;98919.03;;;16.22;60.87
71145;BME280;58812;47.698;17.726;2023-03-31T15:30:02;98921.31;;;16.25;61.63
71145;BME280;58812;47.698;17.726;2023-03-31T15:32:30;98919.66;;;16.18;62.07
71145;BME280;58812;47.698;17.726;2023-03-31T15:34:57;98919.09;;;16.09;61.76
71145;BME280;58812;47.698;17.726;2023-03-31T15:37:26;98899.84;;;15.99;61.81
71145;BME280;58812;47.698;17.726;2023-03-31T15:39:55;98906.94;;;15.87;61.46
71145;BME280;58812;47.698;17.726;2023-03-31T15:42:22;98894.16;;;15.69;62.26
71145;BME280;58812;47.698;17.726;2023-03-31T15:47:36;98904.13;;;15.55;63.52